Time;durP1;ratioP1;P1;durP2;ratioP2;P2;SDS_P1;SDS_P2;PMS_P1;PMS_P2;Temp;Humidity;BMP_temperature;BMP_pressure;BME280_temperature;BME280_humidity;BME280_pressure;Samples;Min_cycle;Max_cycle;Signal;HPM_P1;HPM_P2
2021/12/30 00:02:00;;;;;;;3.35;1.95;;;17.80;59.00;;;;;;5054444;28;20687;-62
2021/12/30 00:04:26;;;;;;;6.97;2.75;;;17.80;59.00;;;;;;5053376;28;20592;-61
2021/12/30 00:06:51;;;;;;;5.40;2.42;;;17.80;59.10;;;;;;5054385;28;20250;-62
2021/12/30 00:09:19;;;;;;;4.30;2.10;;;17.80;59.10;;;;;;5054141;28;20172;-61
2021/12/30 00:11:45;;;;;;;4.70;2.05;;;17.80;59.00;;;;;;5053405;28;20262;-62
2021/12/30 00:14:10;;;;;;;3.60;2.30;;;17.80;59.00;;;;;;5054005;28;20718;-62
2021/12/30 00:16:36;;;;;;;3.03;2.15;;;17.80;59.10;;;;;;5053141;28;20178;-62
2021/12/30 00:19:02;;;;;;;6.30;2.40;;;17.80;59.10;;;;;;5054065;28;20262;-62
2021/12/30 00:21:27;;;;;;;4.85;2.40;;;17.80;59.00;;;;;;5053509;28;20252;-62
2021/12/30 00:23:53;;;;;;;3.58;2.03;;;17.80;59.10;;;;;;5053206;28;20198;-62
2021/12/30 00:26:18;;;;;;;5.90;2.45;;;17.70;59.00;;;;;;5053662;28;20175;-63
2021/12/30 00:28:44;;;;;;;4.57;2.22;;;17.70;59.00;;;;;;5053541;28;20199;-63
2021/12/30 00:31:09;;;;;;;4.85;2.05;;;17.70;59.00;;;;;;5053043;28;20174;-62
2021/12/30 00:33:35;;;;;;;5.10;2.10;;;17.70;59.00;;;;;;5053289;28;20541;-61
2021/12/30 00:36:03;;;;;;;5.68;3.25;;;17.70;59.00;;;;;;5053766;28;20478;-63
2021/12/30 00:38:31;;;;;;;5.30;2.35;;;17.70;59.00;;;;;;5052724;28;20240;-63
2021/12/30 00:40:57;;;;;;;4.80;2.38;;;17.70;59.00;;;;;;5053436;28;20175;-62
2021/12/30 00:43:22;;;;;;;4.65;2.28;;;17.70;59.00;;;;;;5053138;28;20192;-61
2021/12/30 00:45:48;;;;;;;4.82;2.22;;;17.60;59.00;;;;;;5052913;28;20163;-62
2021/12/30 00:48:13;;;;;;;6.15;2.88;;;17.70;59.00;;;;;;5053289;28;20178;-62
2021/12/30 00:50:40;;;;;;;5.88;2.70;;;17.60;59.00;;;;;;5053327;28;20183;-62
2021/12/30 00:53:05;;;;;;;4.65;2.50;;;17.60;58.90;;;;;;5052553;28;20179;-63
2021/12/30 00:55:31;;;;;;;4.82;2.58;;;17.60;58.90;;;;;;5052897;28;20175;-63
2021/12/30 00:57:56;;;;;;;6.93;3.00;;;17.60;58.90;;;;;;5053176;28;20175;-62
2021/12/30 01:00:22;;;;;;;5.63;2.53;;;17.60;59.00;;;;;;5052241;28;20167;-62
2021/12/30 01:02:48;;;;;;;4.00;2.38;;;17.60;58.90;;;;;;5051951;28;20269;-63
2021/12/30 01:05:13;;;;;;;5.85;2.50;;;17.60;58.90;;;;;;5052902;28;20186;-61
2021/12/30 01:07:39;;;;;;;3.58;2.50;;;17.60;58.90;;;;;;5051971;28;20660;-61
2021/12/30 01:10:06;;;;;;;5.80;2.67;;;17.60;58.90;;;;;;5052897;28;20732;-61
2021/12/30 01:12:31;;;;;;;5.47;2.60;;;17.60;59.00;;;;;;5052418;28;20220;-63
2021/12/30 01:14:57;;;;;;;4.40;2.35;;;17.60;58.90;;;;;;5052271;28;20515;-64
2021/12/30 01:17:40;;;;;;;5.20;2.33;;;17.60;58.90;;;;;;5052729;28;20179;-62
2021/12/30 01:20:07;;;;;;;3.85;2.30;;;17.60;58.90;;;;;;5051957;28;20175;-63
2021/12/30 01:22:33;;;;;;;3.75;2.15;;;17.60;58.90;;;;;;5052288;28;20218;-63
2021/12/30 01:24:59;;;;;;;3.88;2.15;;;17.60;58.90;;;;;;5052587;28;20186;-62
2021/12/30 01:27:24;;;;;;;4.10;2.50;;;17.60;58.90;;;;;;5051666;28;20665;-62
2021/12/30 01:29:50;;;;;;;6.90;2.88;;;17.60;58.90;;;;;;5052507;28;20220;-62
2021/12/30 01:32:15;;;;;;;4.93;2.50;;;17.50;58.90;;;;;;5052514;28;20175;-63
2021/12/30 01:34:41;;;;;;;4.25;2.50;;;17.50;58.90;;;;;;5051400;28;20174;-63
2021/12/30 01:37:06;;;;;;;5.55;2.58;;;17.50;58.90;;;;;;5052372;28;20175;-62
2021/12/30 01:39:34;;;;;;;4.55;2.20;;;17.50;58.90;;;;;;5051920;28;20171;-63
2021/12/30 01:41:59;;;;;;;6.32;2.20;;;17.50;58.90;;;;;;5051765;28;20219;-63
2021/12/30 01:44:25;;;;;;;4.90;2.33;;;17.50;58.90;;;;;;5052178;28;20198;-63
2021/12/30 01:46:51;;;;;;;5.40;2.20;;;17.50;58.90;;;;;;5052588;28;20199;-64
2021/12/30 01:49:16;;;;;;;4.22;2.15;;;17.50;58.90;;;;;;5051043;28;20273;-62
2021/12/30 01:51:42;;;;;;;4.38;2.33;;;17.50;58.90;;;;;;5051911;28;20218;-62
2021/12/30 01:54:08;;;;;;;5.90;2.65;;;17.50;58.90;;;;;;5051907;28;20653;-62
2021/12/30 01:56:33;;;;;;;3.13;2.13;;;17.50;59.00;;;;;;5051262;28;20186;-63
2021/12/30 01:58:59;;;;;;;4.45;2.78;;;17.50;58.90;;;;;;5052176;28;20187;-64
2021/12/30 02:01:24;;;;;;;4.93;2.47;;;17.50;58.90;;;;;;5051612;28;20586;-61
2021/12/30 02:03:50;;;;;;;3.55;2.42;;;17.50;58.90;;;;;;5051437;28;20171;-63
2021/12/30 02:06:16;;;;;;;3.65;2.10;;;17.40;58.80;;;;;;5051787;28;20167;-61
2021/12/30 02:08:41;;;;;;;5.82;2.30;;;17.50;59.00;;;;;;5051585;28;20220;-61
2021/12/30 02:11:10;;;;;;;3.97;2.00;;;17.50;59.00;;;;;;5051142;28;20179;-62
2021/12/30 02:13:35;;;;;;;5.30;2.78;;;17.50;58.90;;;;;;5050318;28;20171;-63
2021/12/30 02:16:02;;;;;;;3.53;2.25;;;17.40;58.90;;;;;;5051454;28;20175;-63
2021/12/30 02:18:28;;;;;;;2.60;2.25;;;17.50;59.00;;;;;;5051256;28;20179;-63
2021/12/30 02:20:58;;;;;;;5.18;2.72;;;17.50;58.90;;;;;;5051519;28;20579;-66
2021/12/30 02:23:31;;;;;;;2.95;1.90;;;17.40;58.90;;;;;;5050947;28;20249;-61
2021/12/30 02:25:59;;;;;;;4.90;2.25;;;17.40;58.90;;;;;;5051940;28;20171;-63
2021/12/30 02:28:28;;;;;;;5.47;2.42;;;17.40;58.90;;;;;;5051398;28;20175;-63
2021/12/30 02:30:54;;;;;;;3.97;2.05;;;17.40;58.90;;;;;;5051053;28;20262;-63
2021/12/30 02:33:20;;;;;;;7.68;2.20;;;17.40;58.90;;;;;;5051206;28;20193;-66
2021/12/30 02:35:45;;;;;;;5.55;2.70;;;17.40;59.20;;;;;;5051486;28;20653;-62
2021/12/30 02:38:11;;;;;;;6.38;2.58;;;17.40;59.20;;;;;;5051048;28;20175;-62
2021/12/30 02:40:42;;;;;;;5.18;2.65;;;17.40;59.00;;;;;;5050993;28;20225;-61
2021/12/30 02:43:10;;;;;;;5.25;2.42;;;17.40;59.00;;;;;;5051697;28;20552;-61
2021/12/30 02:45:35;;;;;;;7.35;2.40;;;17.50;59.00;;;;;;5049201;28;20179;-63
2021/12/30 02:48:01;;;;;;;5.47;2.30;;;17.50;59.10;;;;;;5051304;28;20532;-62
2021/12/30 02:50:27;;;;;;;4.00;2.47;;;17.50;59.10;;;;;;5050884;28;20302;-64
2021/12/30 02:52:52;;;;;;;5.63;2.60;;;17.50;59.10;;;;;;5050764;28;20546;-62
2021/12/30 02:55:18;;;;;;;6.28;3.38;;;17.50;59.10;;;;;;5051514;28;20309;-63
2021/12/30 02:57:43;;;;;;;4.13;2.38;;;17.40;59.00;;;;;;5051216;28;20257;-61
2021/12/30 03:00:09;;;;;;;6.13;2.45;;;17.50;59.10;;;;;;5050483;28;20530;-60
2021/12/30 03:02:36;;;;;;;4.53;2.40;;;17.50;59.10;;;;;;5050810;28;20241;-61
2021/12/30 03:05:03;;;;;;;6.28;2.58;;;17.60;59.20;;;;;;5051249;28;20533;-61
2021/12/30 03:07:29;;;;;;;5.20;2.70;;;17.60;59.20;;;;;;5050408;28;20268;-61
2021/12/30 03:09:54;;;;;;;5.95;2.88;;;17.50;59.10;;;;;;5050790;28;20611;-60
2021/12/30 03:12:20;;;;;;;4.40;2.92;;;17.60;59.20;;;;;;5050259;28;20205;-61
2021/12/30 03:14:46;;;;;;;5.07;2.80;;;17.60;59.20;;;;;;5050963;28;20186;-65
2021/12/30 03:17:12;;;;;;;4.95;2.65;;;17.60;59.20;;;;;;5050692;28;20270;-64
2021/12/30 03:19:37;;;;;;;6.45;2.42;;;17.60;59.20;;;;;;5050022;28;20164;-62
2021/12/30 03:22:03;;;;;;;6.18;2.78;;;17.60;59.10;;;;;;5050985;28;20210;-64
2021/12/30 03:24:28;;;;;;;7.15;3.30;;;17.60;59.10;;;;;;5050775;28;20175;-62
2021/12/30 03:26:54;;;;;;;7.05;2.95;;;17.60;59.40;;;;;;5052058;28;20171;-64
2021/12/30 03:29:19;;;;;;;6.15;2.92;;;17.60;59.20;;;;;;5054572;28;20580;-63
2021/12/30 03:31:45;;;;;;;6.28;2.72;;;17.60;59.20;;;;;;5054700;28;20534;-64
2021/12/30 03:34:10;;;;;;;6.97;2.72;;;17.50;59.20;;;;;;5054101;28;20175;-64
2021/12/30 03:36:37;;;;;;;4.70;2.67;;;17.50;59.30;;;;;;5054543;28;20274;-64
2021/12/30 03:39:03;;;;;;;6.75;2.80;;;17.50;59.30;;;;;;5054701;28;20178;-64
2021/12/30 03:41:28;;;;;;;4.20;2.30;;;17.50;59.30;;;;;;5053550;28;20256;-63
2021/12/30 03:43:55;;;;;;;5.50;2.60;;;17.50;59.30;;;;;;5054636;28;20349;-64
2021/12/30 03:46:20;;;;;;;6.78;2.75;;;17.50;59.40;;;;;;5054191;28;20270;-62
2021/12/30 03:48:46;;;;;;;7.53;2.60;;;17.40;59.30;;;;;;5053600;28;20305;-64
2021/12/30 03:51:19;;;;;;;4.80;2.78;;;17.40;59.40;;;;;;5054557;28;20179;-63
2021/12/30 03:53:49;;;;;;;5.53;2.90;;;17.40;59.40;;;;;;5054731;28;20551;-64
2021/12/30 03:56:14;;;;;;;5.13;2.50;;;17.40;59.40;;;;;;5053865;28;20213;-65
2021/12/30 03:58:41;;;;;;;4.78;2.90;;;17.40;59.40;;;;;;5054184;28;20203;-65
2021/12/30 04:01:07;;;;;;;5.88;2.60;;;17.40;59.40;;;;;;5054394;28;20178;-64
2021/12/30 04:03:33;;;;;;;4.45;2.60;;;17.40;59.40;;;;;;5053475;28;20539;-63
2021/12/30 04:05:58;;;;;;;4.95;3.15;;;17.40;59.40;;;;;;5054185;28;20198;-64
2021/12/30 04:08:24;;;;;;;3.78;2.30;;;17.40;59.40;;;;;;5053866;28;20202;-63
2021/12/30 04:10:49;;;;;;;5.47;2.80;;;17.40;59.40;;;;;;5053597;28;20202;-64
2021/12/30 04:13:15;;;;;;;4.15;2.30;;;17.30;59.30;;;;;;5054248;28;20331;-65
2021/12/30 04:15:40;;;;;;;3.45;2.13;;;17.30;59.30;;;;;;5051727;28;20183;-64
2021/12/30 04:18:06;;;;;;;5.78;2.60;;;17.30;59.30;;;;;;5054151;28;20179;-65
2021/12/30 04:20:31;;;;;;;5.30;2.63;;;17.30;59.30;;;;;;5053685;28;20172;-64
2021/12/30 04:22:57;;;;;;;5.30;2.70;;;17.30;59.30;;;;;;5053340;28;20276;-64
2021/12/30 04:25:23;;;;;;;5.30;2.55;;;17.30;59.30;;;;;;5053620;28;20163;-64
2021/12/30 04:27:48;;;;;;;3.95;2.30;;;17.30;59.30;;;;;;5053855;28;20213;-64
2021/12/30 04:30:14;;;;;;;5.40;2.97;;;17.30;59.40;;;;;;5052911;28;20183;-64
2021/12/30 04:32:40;;;;;;;3.42;2.15;;;17.30;59.40;;;;;;5053731;28;20211;-63
2021/12/30 04:35:06;;;;;;;4.53;2.33;;;17.30;59.40;;;;;;5053934;28;20186;-63
2021/12/30 04:37:32;;;;;;;5.20;3.08;;;17.30;59.30;;;;;;5052501;28;20175;-63
2021/12/30 04:39:57;;;;;;;5.80;2.78;;;17.30;59.30;;;;;;5053767;28;20175;-62
2021/12/30 04:42:23;;;;;;;6.82;2.70;;;17.20;59.30;;;;;;5053340;28;20273;-63
2021/12/30 04:44:48;;;;;;;4.45;2.53;;;17.30;59.30;;;;;;5052770;28;20171;-63
2021/12/30 04:47:15;;;;;;;4.25;2.58;;;17.20;59.30;;;;;;5053505;28;20605;-62
2021/12/30 04:49:40;;;;;;;4.32;2.30;;;17.20;59.30;;;;;;5053077;28;20291;-63
2021/12/30 04:52:06;;;;;;;3.47;2.38;;;17.20;59.30;;;;;;5052821;28;20492;-64
2021/12/30 04:54:31;;;;;;;3.72;2.35;;;17.20;59.40;;;;;;5053254;28;20175;-64
2021/12/30 04:56:57;;;;;;;4.65;2.72;;;17.20;59.30;;;;;;5053306;28;20171;-66
2021/12/30 04:59:22;;;;;;;5.47;2.22;;;17.20;59.30;;;;;;5052260;28;20646;-64
2021/12/30 05:01:48;;;;;;;2.30;2.03;;;17.20;59.30;;;;;;5053419;28;20211;-63
2021/12/30 05:04:13;;;;;;;2.60;2.20;;;17.20;59.30;;;;;;5053189;28;20175;-63
2021/12/30 05:06:39;;;;;;;2.88;2.00;;;17.20;59.30;;;;;;5052281;28;20178;-63
2021/12/30 05:09:08;;;;;;;5.18;2.55;;;17.10;59.30;;;;;;5053156;28;20560;-62
2021/12/30 05:11:34;;;;;;;5.53;2.67;;;17.20;59.30;;;;;;5052835;28;20183;-62
2021/12/30 05:13:59;;;;;;;4.35;2.50;;;17.20;59.30;;;;;;5052343;28;20198;-63
2021/12/30 05:16:25;;;;;;;4.00;2.47;;;17.20;59.30;;;;;;5052590;28;20252;-62
2021/12/30 05:18:55;;;;;;;2.92;1.85;;;17.20;59.30;;;;;;5053096;28;20668;-64
2021/12/30 05:21:21;;;;;;;3.35;1.90;;;17.20;59.30;;;;;;5052524;28;20203;-63
2021/12/30 05:23:46;;;;;;;4.40;2.47;;;17.20;59.30;;;;;;5052676;28;20690;-64
2021/12/30 05:26:15;;;;;;;2.88;2.08;;;17.10;59.30;;;;;;5052080;28;20236;-65
2021/12/30 05:28:40;;;;;;;2.17;1.90;;;17.20;59.30;;;;;;5051805;28;20194;-63
2021/12/30 05:31:06;;;;;;;4.45;2.35;;;17.10;59.30;;;;;;5052949;28;20183;-62
2021/12/30 05:33:31;;;;;;;4.00;2.38;;;17.20;59.30;;;;;;5051572;28;20182;-62
2021/12/30 05:35:57;;;;;;;3.90;2.33;;;17.10;59.30;;;;;;5052598;28;20167;-63
2021/12/30 05:38:22;;;;;;;4.47;2.58;;;17.10;59.30;;;;;;5052299;28;20175;-63
2021/12/30 05:40:48;;;;;;;3.72;2.45;;;17.10;59.30;;;;;;5051987;28;20171;-63
2021/12/30 05:43:13;;;;;;;3.55;2.47;;;17.10;59.40;;;;;;5052398;28;20546;-63
2021/12/30 05:45:39;;;;;;;2.65;2.28;;;17.10;59.30;;;;;;5052264;28;20171;-62
2021/12/30 05:48:04;;;;;;;2.65;1.80;;;17.10;59.30;;;;;;5051580;28;20194;-62
2021/12/30 05:50:33;;;;;;;2.75;1.92;;;17.10;59.30;;;;;;5051317;28;20226;-62
2021/12/30 05:52:58;;;;;;;3.08;2.30;;;17.10;59.30;;;;;;5052377;28;20182;-64
2021/12/30 05:55:24;;;;;;;4.18;2.20;;;17.10;59.30;;;;;;5051289;28;20233;-64
2021/12/30 05:57:52;;;;;;;5.20;2.50;;;17.10;59.30;;;;;;5052203;28;20232;-62
2021/12/30 06:00:18;;;;;;;2.22;2.03;;;17.10;59.40;;;;;;5052353;28;20252;-62
2021/12/30 06:02:44;;;;;;;2.15;1.95;;;17.10;59.30;;;;;;5051386;28;20241;-62
2021/12/30 06:05:10;;;;;;;3.33;2.22;;;17.10;59.40;;;;;;5052223;28;20193;-61
2021/12/30 06:07:35;;;;;;;4.30;2.22;;;17.10;59.40;;;;;;5051565;28;20206;-62
2021/12/30 06:10:01;;;;;;;2.70;2.03;;;17.10;59.40;;;;;;5051286;28;20186;-61
2021/12/30 06:12:26;;;;;;;2.42;2.10;;;17.10;59.40;;;;;;5051593;28;20266;-62
2021/12/30 06:14:52;;;;;;;2.47;2.03;;;17.10;59.40;;;;;;5052155;28;20687;-64
2021/12/30 06:17:17;;;;;;;3.17;2.00;;;17.10;59.40;;;;;;5051189;28;20556;-63
2021/12/30 06:19:43;;;;;;;3.08;1.98;;;17.10;59.50;;;;;;5051588;28;20174;-62
2021/12/30 06:22:12;;;;;;;3.30;2.10;;;17.00;59.40;;;;;;5051763;28;20561;-62
2021/12/30 06:24:38;;;;;;;3.53;2.22;;;17.00;59.40;;;;;;5051039;28;20171;-62
2021/12/30 06:27:03;;;;;;;2.30;1.92;;;17.00;59.40;;;;;;5051678;28;20225;-63
2021/12/30 06:29:29;;;;;;;2.25;1.95;;;17.00;59.40;;;;;;5050794;28;20178;-62
2021/12/30 06:31:54;;;;;;;4.05;2.88;;;17.00;59.40;;;;;;5051620;28;20214;-63
2021/12/30 06:34:20;;;;;;;2.00;1.80;;;17.00;59.40;;;;;;5051267;28;20236;-63
2021/12/30 06:36:45;;;;;;;2.72;2.20;;;17.00;59.40;;;;;;5050961;28;20245;-64
2021/12/30 06:39:11;;;;;;;3.78;2.35;;;17.00;59.40;;;;;;5051536;28;20175;-63
2021/12/30 06:41:36;;;;;;;2.67;2.20;;;17.00;59.40;;;;;;5051139;28;20214;-62
2021/12/30 06:44:02;;;;;;;4.25;1.90;;;17.00;59.40;;;;;;5051693;28;20171;-63
2021/12/30 06:46:30;;;;;;;2.20;1.95;;;17.00;59.40;;;;;;5051391;28;20269;-62
2021/12/30 06:48:55;;;;;;;2.47;2.20;;;17.00;59.40;;;;;;5051372;28;20218;-64
2021/12/30 06:51:26;;;;;;;3.70;1.95;;;17.00;59.40;;;;;;5050686;28;20326;-63
2021/12/30 06:53:54;;;;;;;2.45;1.90;;;17.00;59.40;;;;;;5051497;28;20202;-63
2021/12/30 06:56:20;;;;;;;2.33;1.83;;;17.00;59.40;;;;;;5051032;28;20582;-63
2021/12/30 06:58:45;;;;;;;2.10;1.63;;;17.00;59.40;;;;;;5050876;28;20305;-63
2021/12/30 07:01:11;;;;;;;2.88;1.98;;;17.00;59.50;;;;;;5052239;28;20206;-61
2021/12/30 07:03:36;;;;;;;2.05;1.80;;;17.00;59.50;;;;;;5055201;28;20602;-62
2021/12/30 07:06:02;;;;;;;1.80;1.70;;;17.00;59.60;;;;;;5054809;28;20212;-61
2021/12/30 07:08:27;;;;;;;2.20;1.70;;;17.00;59.60;;;;;;5055089;28;20266;-62
2021/12/30 07:10:53;;;;;;;2.25;1.83;;;16.90;59.50;;;;;;5054828;28;20241;-61
2021/12/30 07:13:18;;;;;;;2.47;1.77;;;16.90;59.50;;;;;;5054421;28;20258;-62
2021/12/30 07:15:44;;;;;;;1.90;1.77;;;16.90;59.60;;;;;;5055351;28;20525;-63
2021/12/30 07:18:09;;;;;;;2.92;2.00;;;16.90;59.60;;;;;;5055307;28;20271;-63
2021/12/30 07:20:35;;;;;;;1.90;1.70;;;16.90;59.60;;;;;;5054246;28;20488;-63
2021/12/30 07:23:00;;;;;;;2.13;1.75;;;16.90;59.70;;;;;;5055078;28;20276;-62
2021/12/30 07:25:26;;;;;;;2.08;1.58;;;16.90;59.70;;;;;;5055041;28;20270;-62
2021/12/30 07:27:52;;;;;;;2.53;1.60;;;16.90;59.70;;;;;;5054390;28;20178;-63
2021/12/30 07:30:18;;;;;;;2.25;1.65;;;16.90;59.70;;;;;;5055146;28;20182;-63
2021/12/30 07:32:44;;;;;;;1.63;1.45;;;16.90;59.70;;;;;;5054320;28;20182;-65
2021/12/30 07:35:09;;;;;;;1.88;1.65;;;16.90;59.70;;;;;;5055216;28;20536;-62
2021/12/30 07:37:35;;;;;;;2.28;1.85;;;17.00;59.80;;;;;;5054594;28;20225;-62
2021/12/30 07:40:00;;;;;;;2.40;1.60;;;17.00;59.80;;;;;;5054156;28;20626;-62
2021/12/30 07:42:26;;;;;;;1.77;1.35;;;17.10;59.90;;;;;;5054577;28;20214;-62
2021/12/30 07:44:54;;;;;;;2.55;1.58;;;17.20;59.80;;;;;;5054917;28;20172;-62
2021/12/30 07:47:19;;;;;;;2.30;1.40;;;17.30;60.40;;;;;;5053820;28;20249;-62
2021/12/30 07:49:46;;;;;;;2.83;1.63;;;17.40;59.50;;;;;;5054597;28;20697;-62
2021/12/30 07:52:11;;;;;;;1.67;1.48;;;17.60;59.20;;;;;;5054648;28;20175;-63
2021/12/30 07:54:37;;;;;;;2.55;1.40;;;17.70;59.10;;;;;;5053501;28;20186;-63
2021/12/30 07:57:02;;;;;;;1.60;1.20;;;17.80;58.80;;;;;;5054774;28;20203;-63
2021/12/30 07:59:28;;;;;;;1.58;1.48;;;17.90;58.60;;;;;;5054237;28;20187;-61
2021/12/30 08:01:53;;;;;;;1.65;1.55;;;18.00;58.40;;;;;;5053734;28;20654;-63
2021/12/30 08:04:19;;;;;;;1.50;1.20;;;18.10;58.30;;;;;;5054257;28;20259;-62
2021/12/30 08:06:44;;;;;;;1.15;1.05;;;18.20;58.10;;;;;;5054496;28;20175;-63
2021/12/30 08:09:10;;;;;;;1.10;1.00;;;18.20;58.10;;;;;;5053619;28;20508;-62
2021/12/30 08:11:35;;;;;;;1.52;1.42;;;18.20;58.10;;;;;;5053677;28;20183;-63
2021/12/30 08:14:01;;;;;;;1.02;1.00;;;18.20;58.10;;;;;;5054039;28;20175;-64
2021/12/30 08:16:27;;;;;;;1.67;1.40;;;18.30;58.00;;;;;;5053363;28;20206;-63
2021/12/30 08:18:53;;;;;;;2.03;1.20;;;18.40;58.00;;;;;;5054239;28;20172;-63
2021/12/30 08:21:20;;;;;;;0.80;0.80;;;18.50;57.80;;;;;;5054055;28;20178;-62
2021/12/30 08:23:46;;;;;;;1.25;1.15;;;18.50;57.50;;;;;;5053559;28;20178;-62
2021/12/30 08:26:11;;;;;;;1.73;1.10;;;18.60;57.50;;;;;;5054287;28;20187;-63
2021/12/30 08:28:37;;;;;;;1.88;1.35;;;18.60;57.40;;;;;;5053645;28;20174;-63
2021/12/30 08:31:02;;;;;;;1.73;1.27;;;18.60;57.40;;;;;;5053391;28;20477;-62
2021/12/30 08:33:31;;;;;;;1.75;1.20;;;18.50;57.50;;;;;;5053602;28;20194;-62
2021/12/30 08:35:56;;;;;;;1.30;1.20;;;18.70;57.70;;;;;;5053080;28;20281;-62
2021/12/30 08:38:22;;;;;;;1.52;1.30;;;18.40;57.80;;;;;;5053764;28;20267;-62
2021/12/30 08:40:47;;;;;;;1.77;1.20;;;18.30;57.90;;;;;;5053754;28;20647;-67
2021/12/30 08:43:17;;;;;;;1.30;1.13;;;18.30;58.00;;;;;;5052802;28;20758;-66
2021/12/30 08:45:43;;;;;;;1.10;0.98;;;18.20;58.10;;;;;;5053284;28;20186;-66
2021/12/30 08:48:08;;;;;;;1.25;1.15;;;18.20;58.10;;;;;;5053403;28;20176;-66
2021/12/30 08:50:34;;;;;;;2.22;1.40;;;18.10;58.30;;;;;;5052083;28;20356;-66
2021/12/30 08:53:00;;;;;;;2.08;1.23;;;18.10;58.40;;;;;;5053259;28;20175;-66
2021/12/30 08:55:25;;;;;;;2.22;1.13;;;18.00;58.50;;;;;;5053101;28;20225;-66
2021/12/30 08:57:51;;;;;;;1.35;1.13;;;18.00;58.50;;;;;;5052654;28;20172;-67
2021/12/30 09:00:24;;;;;;;2.13;1.15;;;18.00;58.60;;;;;;5053173;28;20241;-67
2021/12/30 09:02:54;;;;;;;1.63;1.10;;;17.90;58.70;;;;;;5053154;28;20317;-67
2021/12/30 09:05:19;;;;;;;2.08;1.17;;;17.90;58.90;;;;;;5052138;28;20179;-67
2021/12/30 09:07:46;;;;;;;1.42;1.30;;;17.90;58.90;;;;;;5053091;28;20179;-65
2021/12/30 09:10:12;;;;;;;1.55;1.13;;;18.00;58.80;;;;;;5053406;28;20232;-66
2021/12/30 09:12:45;;;;;;;1.60;1.23;;;18.40;59.00;;;;;;5052078;28;20414;-65
2021/12/30 09:15:12;;;;;;;1.38;1.05;;;18.00;58.80;;;;;;5053124;28;20175;-67
2021/12/30 09:17:39;;;;;;;1.67;1.27;;;18.00;58.80;;;;;;5053057;28;20297;-66
2021/12/30 09:20:06;;;;;;;0.90;0.90;;;17.90;58.80;;;;;;5052193;28;20179;-66
2021/12/30 09:22:35;;;;;;;1.05;1.00;;;17.90;58.80;;;;;;5052606;28;20215;-65
2021/12/30 09:25:05;;;;;;;2.08;1.20;;;17.80;58.90;;;;;;5051854;28;20199;-65
2021/12/30 09:27:32;;;;;;;1.58;1.33;;;17.80;58.90;;;;;;5052266;28;20179;-66
2021/12/30 09:29:59;;;;;;;1.30;1.15;;;17.80;59.70;;;;;;5052641;28;20194;-66
2021/12/30 09:32:24;;;;;;;2.25;1.48;;;17.80;59.10;;;;;;5051450;28;20168;-66
2021/12/30 09:34:50;;;;;;;1.35;1.25;;;17.80;59.20;;;;;;5052717;28;20190;-66
2021/12/30 09:37:15;;;;;;;2.28;1.60;;;17.80;59.10;;;;;;5052420;28;20198;-66
2021/12/30 09:39:41;;;;;;;1.73;1.40;;;17.90;59.10;;;;;;5051550;28;20175;-66
2021/12/30 09:42:07;;;;;;;1.90;1.30;;;17.90;59.10;;;;;;5052367;28;20203;-66
2021/12/30 09:44:32;;;;;;;2.42;1.38;;;17.80;59.10;;;;;;5052011;28;20595;-67
2021/12/30 09:46:58;;;;;;;1.38;1.00;;;17.80;59.20;;;;;;5051698;28;20642;-66
2021/12/30 09:49:24;;;;;;;3.78;1.27;;;17.80;59.20;;;;;;5051859;28;20284;-68
2021/12/30 09:51:50;;;;;;;3.50;1.25;;;17.80;59.60;;;;;;5052348;28;20468;-67
2021/12/30 09:54:15;;;;;;;1.40;1.13;;;17.80;59.60;;;;;;5051539;28;20262;-68
2021/12/30 09:56:41;;;;;;;2.53;1.88;;;17.80;59.60;;;;;;5051833;28;20507;-68
2021/12/30 09:59:07;;;;;;;1.55;1.45;;;17.80;59.60;;;;;;5052050;28;20179;-68
2021/12/30 10:01:34;;;;;;;2.40;1.20;;;17.80;59.60;;;;;;5050892;28;20225;-68
2021/12/30 10:04:01;;;;;;;2.55;1.40;;;17.80;59.60;;;;;;5052083;28;20633;-68
2021/12/30 10:06:26;;;;;;;2.33;1.30;;;17.80;59.70;;;;;;5051920;28;20244;-68
2021/12/30 10:08:57;;;;;;;1.70;1.20;;;17.80;59.70;;;;;;5051320;28;20626;-65
2021/12/30 10:11:23;;;;;;;3.03;1.40;;;17.80;59.80;;;;;;5051597;28;20661;-65
2021/12/30 10:13:50;;;;;;;1.73;1.40;;;17.80;59.90;;;;;;5051969;28;20240;-66
2021/12/30 10:16:16;;;;;;;1.98;1.20;;;17.70;59.90;;;;;;5051271;28;20189;-66
2021/12/30 10:18:43;;;;;;;1.58;1.17;;;17.60;59.80;;;;;;5051770;28;20179;-66
2021/12/30 10:21:32;;;;;;;3.13;1.25;;;17.60;59.90;;;;;;5051778;28;20252;-65
2021/12/30 10:23:59;;;;;;;3.20;1.20;;;17.60;59.90;;;;;;5051739;28;20187;-66
2021/12/30 10:26:25;;;;;;;2.40;1.67;;;17.60;60.00;;;;;;5051386;28;20175;-66
2021/12/30 10:28:54;;;;;;;1.40;1.02;;;17.60;60.10;;;;;;5050992;28;20171;-66
2021/12/30 10:31:22;;;;;;;1.75;1.30;;;17.60;60.20;;;;;;5051315;28;20171;-67
2021/12/30 10:33:57;;;;;;;1.60;1.30;;;17.50;60.20;;;;;;5051713;28;20182;-67
2021/12/30 10:36:32;;;;;;;2.78;1.80;;;17.50;60.20;;;;;;5050365;28;20325;-68
2021/12/30 10:39:18;;;;;;;3.15;1.55;;;17.50;60.20;;;;;;5051536;28;20181;-67
2021/12/30 10:41:43;;;;;;;1.80;1.40;;;17.50;60.30;;;;;;5051439;28;20311;-66
2021/12/30 10:44:09;;;;;;;1.75;1.65;;;17.50;60.40;;;;;;5050807;28;20290;-68
2021/12/30 10:46:34;;;;;;;3.00;1.60;;;17.50;60.40;;;;;;5051260;28;20187;-69
2021/12/30 10:49:08;;;;;;;1.75;1.42;;;17.50;60.20;;;;;;5050945;28;20273;-65
2021/12/30 10:51:43;;;;;;;1.92;1.30;;;17.50;60.20;;;;;;5050164;28;20586;-66
2021/12/30 10:54:27;;;;;;;2.53;1.52;;;17.50;60.30;;;;;;5051067;28;20767;-64
2021/12/30 10:56:57;;;;;;;1.42;1.33;;;17.50;60.60;;;;;;5050534;28;20502;-65
2021/12/30 10:59:29;;;;;;;1.83;1.30;;;17.60;60.70;;;;;;5050907;28;20217;-65
2021/12/30 11:02:18;;;;;;;2.67;1.35;;;17.60;60.70;;;;;;5051126;28;20242;-66
2021/12/30 11:04:45;;;;;;;1.60;1.40;;;17.60;60.50;;;;;;5050346;28;20579;-66
2021/12/30 11:07:12;;;;;;;2.63;1.63;;;17.60;60.50;;;;;;5051411;28;20179;-65
2021/12/30 11:09:53;;;;;;;2.67;1.75;;;17.60;60.50;;;;;;5050859;28;20187;-65
2021/12/30 11:12:26;;;;;;;2.70;1.67;;;17.60;60.50;;;;;;5050170;28;20174;-65
2021/12/30 11:14:52;;;;;;;1.77;1.33;;;17.60;60.70;;;;;;5050986;28;20183;-66
2021/12/30 11:17:22;;;;;;;1.48;1.38;;;17.60;60.80;;;;;;5051107;28;20229;-65
2021/12/30 11:19:55;;;;;;;1.98;1.20;;;17.60;60.70;;;;;;5050479;28;20179;-66
2021/12/30 11:22:22;;;;;;;4.63;1.40;;;17.60;61.10;;;;;;5050736;28;20708;-65
2021/12/30 11:24:48;;;;;;;1.50;1.40;;;17.60;61.10;;;;;;5050242;28;20179;-64
2021/12/30 11:27:14;;;;;;;4.95;1.30;;;17.60;61.20;;;;;;5051414;28;20179;-66
2021/12/30 11:29:43;;;;;;;2.13;1.48;;;17.50;60.90;;;;;;5050724;28;20232;-66
2021/12/30 11:32:08;;;;;;;3.90;1.90;;;17.50;61.20;;;;;;5050374;28;20171;-66
2021/12/30 11:34:34;;;;;;;4.43;1.60;;;17.50;61.30;;;;;;5050667;28;20258;-68
2021/12/30 11:37:00;;;;;;;3.35;1.98;;;17.50;61.40;;;;;;5051011;28;20167;-72
2021/12/30 11:39:25;;;;;;;3.42;1.75;;;17.50;61.80;;;;;;5049967;28;20484;-67
2021/12/30 11:42:18;;;;;;;3.20;1.83;;;17.50;62.00;;;;;;5051034;28;20203;-68
2021/12/30 11:44:48;;;;;;;4.80;2.00;;;17.60;61.60;;;;;;5047954;28;20197;-68
2021/12/30 11:47:32;;;;;;;5.82;1.83;;;17.50;61.60;;;;;;5050731;28;20179;-71
2021/12/30 11:49:58;;;;;;;2.80;1.80;;;17.60;61.60;;;;;;5054174;28;20313;-68
2021/12/30 11:53:02;;;;;;;2.00;1.80;;;17.60;61.60;;;;;;5054359;28;20187;-70
2021/12/30 11:55:50;;;;;;;3.15;1.73;;;17.60;61.60;;;;;;5054246;28;20178;-69
2021/12/30 11:58:28;;;;;;;2.20;1.60;;;17.60;61.70;;;;;;5054142;28;20255;-72
2021/12/30 12:01:01;;;;;;;2.42;1.75;;;17.60;61.70;;;;;;5053678;28;20237;-71
2021/12/30 12:03:53;;;;;;;3.28;1.73;;;17.60;61.70;;;;;;5053989;28;20322;-69
2021/12/30 12:06:27;;;;;;;2.78;1.40;;;17.60;61.60;;;;;;5052930;28;20187;-73
2021/12/30 12:09:07;;;;;;;3.88;1.75;;;17.60;61.80;;;;;;5053437;28;20174;-66
2021/12/30 12:11:41;;;;;;;3.92;1.70;;;17.60;61.90;;;;;;5054122;28;20206;-65
2021/12/30 12:14:22;;;;;;;5.45;1.67;;;17.60;61.90;;;;;;5053232;28;20178;-65
2021/12/30 12:16:58;;;;;;;4.25;2.00;;;17.50;61.60;;;;;;5054046;28;20627;-65
2021/12/30 12:19:37;;;;;;;3.75;1.67;;;17.60;61.80;;;;;;5053790;28;20213;-65
2021/12/30 12:22:05;;;;;;;4.00;1.80;;;17.50;61.40;;;;;;5053257;28;20669;-72
2021/12/30 12:24:33;;;;;;;3.58;1.70;;;17.50;61.60;;;;;;5052787;28;20207;-68
2021/12/30 12:27:04;;;;;;;2.65;1.80;;;17.50;61.60;;;;;;5053912;28;20175;-68
2021/12/30 12:29:35;;;;;;;4.75;1.80;;;17.50;62.00;;;;;;5052626;28;20254;-66
2021/12/30 12:32:03;;;;;;;4.28;1.85;;;17.60;62.20;;;;;;5053970;28;20171;-66
2021/12/30 12:34:55;;;;;;;3.83;1.98;;;17.60;62.00;;;;;;5053463;28;20183;-67
2021/12/30 12:37:33;;;;;;;3.60;1.90;;;17.50;61.90;;;;;;5051460;28;20187;-66
2021/12/30 12:40:04;;;;;;;7.10;2.05;;;17.50;61.70;;;;;;5053509;28;20528;-66
2021/12/30 12:42:48;;;;;;;4.30;1.90;;;17.50;61.90;;;;;;5052532;28;20218;-66
2021/12/30 12:45:26;;;;;;;4.03;1.98;;;17.50;61.60;;;;;;5053642;28;20167;-67
2021/12/30 12:48:17;;;;;;;5.30;1.80;;;17.50;61.30;;;;;;5053373;28;20637;-66
2021/12/30 12:50:47;;;;;;;5.15;2.17;;;17.60;61.40;;;;;;5052247;28;20226;-67